SBCO

Details ICAO SBCO
Name Canoas
Region Brazil
Timezone America/Sao_Paulo (UTC-3.0)
Plans Departing 14
Arriving 9
Stats Elevation 26 ft / 8 m (AMSL)
Location -29.945944° -51.144367°
Runways 1
Magnetic Variation 16.983° W
Sunrise 2018-05-23 10:08:34 UTC / 2018-05-23 07:08:34 Local
Sunset 2018-05-23 20:36:58 UTC / 2018-05-23 17:36:58 Local
Advertisement - Login to hide

Runways

ID Width Length Bearing (true) Bearing (mag) Surface Threshold Offset Overrun Length
12 145 ft / 44 m 9,027 ft / 2,751 m 109.57° 126.55° Asphalt 0 ft / 0 m 1,159 ft / 353 m
30 145 ft / 44 m 9,027 ft / 2,751 m 289.56° 306.54° Asphalt 0 ft / 0 m 1,025 ft / 312 m

Map

Weather


0- 5 10 15 20 25 30 35+ Temperature / ° C

Clouds and Precipitation
Forecast for 2018-05-23 12:00 UTC. Updated 4 hours ago

Ground ~20,000 ft ~40,000 ft Winds

METAR

SBCO 231500Z 29009KT CAVOK 16/07 Q1025

TAF

TAF SBCO 230930Z 2312/2324 29005KT CAVOK TN09/2312Z TX17/2318Z RMK PER

Frequencies

Recorded 127.85 MHz ATIS
Tower 122.80 MHz TWR
Approach 119.00 MHz PALEGRE APP
Approach 120.55 MHz PALEGRE APP
Ground 121.70 MHz GND
Tower 118.50 MHz TWR
Approach 120.10 MHz PALEGRE APP
Approach 128.90 MHz PALEGRE APP
Warning: Do not use this data for real-world aviation or navigation. No guarantee of current accuracy is given.